Wetterstation Tischlerei-Herzog
Wetterdaten: aktuell Dienstag, 26.05.2020 12:18
Datum Zeit Temp. N Temp. S Temp. Htte Aussentemp. Temp. Bo Feuchte Htt Luftfeuchte Luftdruck Niederschl. Taupunkt empf. Temp.
26.05.2020 12:18 17,9 C 17,2 C 16,2 C 17,2 C 12,7 C 20 % 33 % 1030,9 hPa 0,0 l/m 0,8 C 17,2 C
26.05.2020 11:18 16,0 C 15,0 C 14,5 C 15,0 C 12,0 C 20 % 37 % 1032,3 hPa 0,0 l/m 0,4 C 15,0 C
26.05.2020 10:18 14,4 C 13,4 C 12,7 C 13,4 C 11,5 C 20 % 42 % 1031,5 hPa 0,0 l/m 0,8 C 13,4 C
26.05.2020 09:18 12,5 C 12,1 C 11,2 C 12,1 C 11,1 C 20 % 43 % 1031,7 hPa 0,0 l/m -0,1 C 12,1 C
26.05.2020 08:18 10,4 C 9,6 C 9,3 C 9,6 C 11,0 C 32 % 50 % 1032,1 hPa 0,0 l/m -0,3 C 6,7 C
26.05.2020 07:18 8,5 C 8,3 C 8,0 C 8,3 C 11,0 C 40 % 52 % 1032,3 hPa 0,0 l/m -1,0 C 5,1 C
26.05.2020 06:18 7,3 C 7,8 C 7,4 C 7,3 C 11,1 C 42 % 55 % 1031,4 hPa 0,0 l/m -1,1 C 3,8 C
26.05.2020 05:18 6,7 C 6,9 C 6,6 C 6,7 C 11,2 C 44 % 57 % 1031,5 hPa 0,0 l/m -1,2 C 3,1 C
26.05.2020 04:18 6,1 C 6,6 C 5,9 C 6,1 C 11,4 C 44 % 57 % 1031,6 hPa 0,0 l/m -1,8 C 2,3 C
26.05.2020 03:18 5,2 C 5,6 C 5,0 C 5,2 C 11,7 C 43 % 61 % 1031,8 hPa 0,0 l/m -1,7 C 1,2 C
26.05.2020 02:18 3,9 C 4,7 C 4,4 C 3,9 C 12,1 C 40 % 61 % 1032,0 hPa 0,0 l/m -2,9 C -0,5 C
26.05.2020 01:18 5,0 C 6,0 C 5,4 C 5,0 C 12,6 C 38 % 59 % 1031,8 hPa 0,0 l/m -2,3 C 0,9 C
26.05.2020 00:18 5,7 C 7,0 C 6,4 C 5,7 C 13,1 C 35 % 57 % 1031,7 hPa 0,0 l/m -2,1 C 1,8 C
25.05.2020 23:18 6,7 C 7,7 C 10,7 C 6,7 C 13,5 C 95 % 54 % 1030,5 hPa 0,0 l/m -1,9 C 3,1 C
25.05.2020 22:12 8,3 C 9,6 C 10,7 C 8,3 C 14,0 C 95 % 50 % 1030,2 hPa 0,0 l/m -1,5 C 5,1 C
25.05.2020 21:12 10,6 C 11,5 C 11,8 C 10,6 C 14,4 C 20 % 45 % 1029,8 hPa 0,0 l/m -0,8 C 10,6 C
25.05.2020 20:12 14,7 C 13,7 C 13,4 C 13,7 C 14,7 C 20 % 40 % 1028,3 hPa 0,0 l/m 0,4 C 13,7 C
25.05.2020 19:12 13,7 C 14,1 C 14,2 C 13,7 C 14,9 C 20 % 38 % 1027,2 hPa 0,0 l/m -0,4 C 13,7 C
25.05.2020 18:12 18,5 C 15,6 C 14,9 C 15,6 C 15,0 C 20 % 35 % 1026,9 hPa 0,0 l/m 0,2 C 15,6 C
25.05.2020 17:12 15,3 C 15,2 C 15,3 C 15,2 C 14,9 C 20 % 35 % 1027,0 hPa 0,0 l/m -0,2 C 15,2 C
25.05.2020 16:12 14,7 C 15,2 C 15,6 C 14,7 C 14,8 C 20 % 33 % 1026,0 hPa 0,0 l/m -1,4 C 14,7 C
25.05.2020 15:12 15,4 C 15,3 C 15,6 C 15,3 C 14,4 C 20 % 33 % 1025,9 hPa 0,0 l/m -0,9 C 15,3 C
25.05.2020 14:12 15,3 C 15,5 C 15,6 C 15,3 C 14,2 C 20 % 31 % 1025,9 hPa 0,0 l/m -1,7 C 15,3 C
25.05.2020 13:12 15,4 C 16,4 C 15,3 C 15,4 C 13,8 C 20 % 31 % 1025,9 hPa 0,0 l/m -1,6 C 15,4 C
25.05.2020 13:02 14,4 C 15,2 C 15,4 C 14,4 C 13,7 C 20 % 31 % 1026,1 hPa 0,0 l/m -2,5 C 14,4 C
_ Min-Zeit 02:23 02:38 02:38 02:23 06:33 13:02 13:57 14:17 - 02:13 02:23
Minimum _ 3,8 C 4,6 C 4,1 C 3,8 C 11,0 C 20 % 30 % 1025,9 hPa - -3,1 C -0,6 C
_ Max-Zeit 18:12 12:03 11:58 11:53 17:22 21:37 02:48 07:08 13:02 10:28 11:53
Maximum _ 18,5 C 18,4 C 16,2 C 17,7 C 15,0 C 95 % 62 % 1032,3 hPa 0,0 l/m 1,2 C 17,7 C
Durchschnitt _ 11,1 C 11,4 C 11,3 C 10,9 C 13,0 C 35 % 45 % 1029,6 hPa #0,0 l/m -1,1 C 9,3 C
Tischlerei Herzog